createdAt,value
2023-04-12T00:00:18.547Z,79.70
2023-04-12T00:02:46.821Z,80.02
2023-04-12T00:05:14.760Z,80.86
2023-04-12T00:07:43.321Z,81.58
2023-04-12T00:10:11.513Z,81.07
2023-04-12T00:12:41.765Z,81.45
2023-04-12T00:15:14.969Z,82.49
2023-04-12T00:17:41.702Z,83.62
2023-04-12T00:20:13.344Z,84.47
2023-04-12T00:22:44.369Z,83.24
2023-04-12T00:25:12.326Z,83.31
2023-04-12T00:27:40.330Z,83.05
2023-04-12T00:30:08.956Z,82.36
2023-04-12T00:32:39.657Z,82.71
2023-04-12T00:35:10.820Z,84.31
2023-04-12T00:37:42.203Z,83.93
2023-04-12T00:40:10.380Z,83.79
2023-04-12T00:42:41.261Z,84.17
2023-04-12T00:45:13.917Z,82.35
2023-04-12T00:47:44.386Z,82.11
2023-04-12T00:50:13.225Z,83.05
2023-04-12T00:52:41.038Z,84.34
2023-04-12T00:55:10.854Z,85.26
2023-04-12T00:57:42.277Z,83.23
2023-04-12T01:00:12.914Z,83.80
2023-04-12T01:02:48.008Z,83.10
2023-04-12T01:05:22.129Z,84.42
2023-04-12T01:07:54.204Z,84.63
2023-04-12T01:10:30.437Z,84.38
2023-04-12T01:13:05.565Z,84.12
2023-04-12T01:15:35.827Z,84.46
2023-04-12T01:18:07.243Z,86.50
2023-04-12T01:20:44.539Z,84.75
2023-04-12T01:23:30.058Z,83.73
2023-04-12T01:26:16.405Z,84.01
2023-04-12T01:28:44.459Z,85.99
2023-04-12T01:31:12.877Z,86.87
2023-04-12T01:33:42.367Z,85.09
2023-04-12T01:36:19.939Z,84.67
2023-04-12T01:38:47.657Z,85.10
2023-04-12T01:41:14.580Z,85.41
2023-04-12T01:43:42.951Z,85.83
2023-04-12T01:46:27.711Z,85.37
2023-04-12T01:48:54.823Z,85.06
2023-04-12T01:51:35.835Z,85.10
2023-04-12T01:54:11.586Z,86.19
2023-04-12T01:56:46.656Z,85.69
2023-04-12T01:59:16.429Z,85.31
2023-04-12T02:01:44.428Z,85.11
2023-04-12T02:04:11.715Z,85.47
2023-04-12T02:06:39.212Z,85.42
2023-04-12T02:09:08.583Z,83.54
2023-04-12T02:11:35.076Z,85.91
2023-04-12T02:14:01.598Z,84.23
2023-04-12T02:16:29.536Z,85.03
2023-04-12T02:18:57.470Z,86.53
2023-04-12T02:21:23.925Z,86.84
2023-04-12T02:23:50.752Z,86.99
2023-04-12T02:26:17.203Z,85.48
2023-04-12T02:28:44.487Z,86.35
2023-04-12T02:31:12.141Z,85.41
2023-04-12T02:33:38.710Z,85.52
2023-04-12T02:36:10.207Z,85.16
2023-04-12T02:38:36.690Z,84.95
2023-04-12T02:41:03.148Z,84.68
2023-04-12T02:43:29.629Z,85.58
2023-04-12T02:45:56.117Z,84.90
2023-04-12T02:48:22.627Z,85.17
2023-04-12T02:50:49.064Z,83.73
2023-04-12T02:53:16.093Z,84.03
2023-04-12T02:55:42.556Z,86.10
2023-04-12T02:58:09.034Z,86.75
2023-04-12T03:00:35.598Z,85.98
2023-04-12T03:03:03.779Z,84.66
2023-04-12T03:05:30.516Z,87.32
2023-04-12T03:07:57.030Z,86.04
2023-04-12T03:10:23.677Z,86.86
2023-04-12T03:12:50.214Z,85.71
2023-04-12T03:15:17.960Z,87.18
2023-04-12T03:17:45.102Z,86.89
2023-04-12T03:20:12.144Z,85.72
2023-04-12T03:22:38.751Z,86.01
2023-04-12T03:25:05.985Z,87.35
2023-04-12T03:27:32.803Z,87.44
2023-04-12T03:29:59.271Z,85.89
2023-04-12T03:32:25.854Z,86.57
2023-04-12T03:34:52.377Z,85.71
2023-04-12T03:37:19.569Z,85.88
2023-04-12T03:39:48.142Z,87.88
2023-04-12T03:42:29.367Z,87.51
2023-04-12T03:44:58.661Z,86.32
2023-04-12T03:47:25.509Z,85.83
2023-04-12T03:50:10.250Z,86.18
2023-04-12T03:52:38.147Z,86.05
2023-04-12T03:55:07.103Z,84.22
2023-04-12T03:57:33.855Z,84.98
2023-04-12T04:00:00.327Z,85.93
2023-04-12T04:02:27.464Z,85.81
2023-04-12T04:04:54.193Z,83.79
2023-04-12T04:07:22.438Z,84.33
2023-04-12T04:09:50.028Z,84.25
2023-04-12T04:12:16.612Z,84.57
2023-04-12T04:14:43.281Z,83.30
2023-04-12T04:17:09.729Z,82.57
2023-04-12T04:19:36.209Z,84.13
2023-04-12T04:22:02.866Z,84.08
2023-04-12T04:24:29.920Z,82.14
2023-04-12T04:26:56.427Z,81.77
2023-04-12T04:29:23.716Z,81.32
2023-04-12T04:31:50.845Z,82.25
2023-04-12T04:34:19.162Z,82.15
2023-04-12T04:36:46.919Z,81.45
2023-04-12T04:39:13.477Z,82.54
2023-04-12T04:41:41.377Z,81.72
2023-04-12T04:44:11.379Z,80.88
2023-04-12T04:46:38.251Z,81.20
2023-04-12T04:49:05.574Z,81.44
2023-04-12T04:51:32.233Z,81.45
2023-04-12T04:53:59.191Z,80.74
2023-04-12T04:56:26.265Z,79.80
2023-04-12T04:58:54.638Z,80.21
2023-04-12T05:01:26.043Z,80.56
2023-04-12T05:03:52.770Z,80.34
2023-04-12T05:06:19.312Z,80.93
2023-04-12T05:08:45.902Z,81.99
2023-04-12T05:11:12.363Z,81.62
2023-04-12T05:13:38.841Z,80.15
2023-04-12T05:16:09.024Z,80.21
2023-04-12T05:18:35.893Z,79.68
2023-04-12T05:21:05.860Z,79.48
2023-04-12T05:23:36.022Z,79.21
2023-04-12T05:26:02.538Z,78.81
2023-04-12T05:28:29.028Z,77.74
2023-04-12T05:30:55.519Z,77.80
2023-04-12T05:33:22.042Z,77.37
2023-04-12T05:35:48.618Z,78.18
2023-04-12T05:38:15.181Z,77.22
2023-04-12T05:40:43.964Z,76.59
2023-04-12T05:43:13.318Z,77.37
2023-04-12T05:45:41.439Z,77.30
2023-04-12T05:48:08.645Z,76.05
2023-04-12T05:50:35.369Z,76.12
2023-04-12T05:53:02.208Z,77.45
2023-04-12T05:55:30.020Z,76.28
2023-04-12T05:57:57.632Z,76.35
2023-04-12T06:00:24.336Z,75.59
2023-04-12T06:02:51.692Z,74.93
2023-04-12T06:05:18.360Z,74.46
2023-04-12T06:07:48.807Z,74.15
2023-04-12T06:10:17.162Z,73.46
2023-04-12T06:12:44.033Z,73.08
2023-04-12T06:15:10.924Z,72.60
2023-04-12T06:17:37.616Z,71.47
2023-04-12T06:20:10.627Z,71.19
2023-04-12T06:22:37.542Z,70.87
2023-04-12T06:25:04.749Z,71.24
2023-04-12T06:27:31.633Z,70.51
2023-04-12T06:29:58.240Z,70.36
2023-04-12T06:32:24.946Z,68.83
2023-04-12T06:34:51.574Z,68.04
2023-04-12T06:37:18.241Z,68.55
2023-04-12T06:39:44.693Z,67.66
2023-04-12T06:42:13.243Z,67.26
2023-04-12T06:44:41.326Z,66.58
2023-04-12T06:47:07.889Z,67.12
2023-04-12T06:49:34.485Z,66.43
2023-04-12T06:52:01.126Z,66.24
2023-04-12T06:54:27.612Z,66.13
2023-04-12T06:56:54.052Z,65.53
2023-04-12T06:59:20.570Z,65.31
2023-04-12T07:01:47.067Z,65.39
2023-04-12T07:04:13.765Z,65.14
2023-04-12T07:06:40.536Z,64.65
2023-04-12T07:09:07.092Z,63.92
2023-04-12T07:11:33.628Z,63.42
2023-04-12T07:14:00.902Z,62.50
2023-04-12T07:16:31.203Z,60.98
2023-04-12T07:18:59.209Z,61.50
2023-04-12T07:21:27.468Z,61.42
2023-04-12T07:23:54.021Z,60.35
2023-04-12T07:26:21.757Z,60.59
2023-04-12T07:28:48.408Z,59.34
2023-04-12T07:31:14.844Z,59.46
2023-04-12T07:33:42.981Z,59.45
2023-04-12T07:36:10.619Z,58.39
2023-04-12T07:38:37.252Z,58.85
2023-04-12T07:41:03.876Z,58.30
2023-04-12T07:43:30.366Z,56.58
2023-04-12T07:45:56.901Z,57.63
2023-04-12T07:48:23.541Z,57.21
2023-04-12T07:50:50.678Z,56.14
2023-04-12T07:53:22.091Z,56.28
2023-04-12T07:55:49.079Z,56.26
2023-04-12T07:58:16.236Z,56.56
2023-04-12T08:00:46.766Z,56.53
2023-04-12T08:03:14.977Z,56.51
2023-04-12T08:05:42.219Z,56.80
2023-04-12T08:08:12.233Z,55.15
2023-04-12T08:10:39.741Z,55.43
2023-04-12T08:13:07.011Z,54.92
2023-04-12T08:15:33.767Z,55.33
2023-04-12T08:18:01.062Z,55.32
2023-04-12T08:20:27.713Z,54.55
2023-04-12T08:22:54.692Z,55.15
2023-04-12T08:25:21.469Z,54.87
2023-04-12T08:27:49.523Z,54.67
2023-04-12T08:30:16.040Z,54.12
2023-04-12T08:32:42.534Z,54.48
2023-04-12T08:35:09.732Z,53.85
2023-04-12T08:37:36.264Z,53.81
2023-04-12T08:40:05.230Z,53.45
2023-04-12T08:42:34.549Z,53.61
2023-04-12T08:45:08.027Z,54.20
2023-04-12T08:47:36.038Z,52.65
2023-04-12T08:50:03.673Z,53.16
2023-04-12T08:52:33.755Z,53.19
2023-04-12T08:55:03.171Z,53.60
2023-04-12T08:57:31.640Z,53.02
2023-04-12T09:00:00.993Z,53.35
2023-04-12T09:02:28.076Z,53.25
2023-04-12T09:04:55.534Z,51.99
2023-04-12T09:07:30.278Z,53.42
2023-04-12T09:09:58.476Z,53.07
2023-04-12T09:12:25.003Z,53.65
2023-04-12T09:15:13.417Z,52.80
2023-04-12T09:17:41.447Z,53.53
2023-04-12T09:20:17.264Z,53.17
2023-04-12T09:22:46.411Z,53.55
2023-04-12T09:25:14.278Z,54.79
2023-04-12T09:27:51.026Z,54.19
2023-04-12T09:30:18.829Z,54.21
2023-04-12T09:32:45.682Z,54.63
2023-04-12T09:35:12.272Z,54.59
2023-04-12T09:37:39.179Z,54.18
2023-04-12T09:40:07.575Z,54.00
2023-04-12T09:42:35.458Z,52.77
2023-04-12T09:45:20.279Z,53.41
2023-04-12T09:47:46.921Z,53.92
2023-04-12T09:50:21.117Z,53.22
2023-04-12T09:52:48.384Z,53.78
2023-04-12T09:55:15.676Z,53.91
2023-04-12T09:57:43.560Z,53.39
2023-04-12T10:00:18.365Z,53.72
2023-04-12T10:02:47.821Z,54.00
2023-04-12T10:05:18.194Z,54.28
2023-04-12T10:07:45.629Z,54.44
2023-04-12T10:10:13.680Z,53.96
2023-04-12T10:12:42.197Z,54.12
2023-04-12T10:15:13.665Z,53.70
2023-04-12T10:17:53.996Z,55.53
2023-04-12T10:20:23.008Z,55.42
2023-04-12T10:22:52.513Z,54.75
2023-04-12T10:25:25.169Z,54.07
2023-04-12T10:27:51.689Z,54.02
2023-04-12T10:30:25.365Z,53.89
2023-04-12T10:33:10.204Z,53.68
2023-04-12T10:35:56.467Z,54.84
2023-04-12T10:38:28.032Z,54.20
2023-04-12T10:41:30.044Z,54.69
2023-04-12T10:44:28.685Z,54.09
2023-04-12T10:46:55.265Z,54.60
2023-04-12T10:49:21.850Z,54.31
2023-04-12T10:52:00.958Z,54.18
2023-04-12T10:54:27.401Z,54.16
2023-04-12T10:56:53.903Z,53.20
2023-04-12T10:59:20.872Z,53.23
2023-04-12T11:02:10.768Z,54.68
2023-04-12T11:04:37.586Z,56.23
2023-04-12T11:07:09.716Z,54.31
2023-04-12T11:09:36.157Z,54.26
2023-04-12T11:12:06.491Z,55.49
2023-04-12T11:14:34.855Z,55.52
2023-04-12T11:17:07.459Z,55.88
2023-04-12T11:19:34.869Z,56.06
2023-04-12T11:22:02.365Z,56.92
2023-04-12T11:24:29.275Z,57.41
2023-04-12T11:26:56.922Z,58.15
2023-04-12T11:29:27.447Z,59.21
2023-04-12T11:31:55.960Z,60.38
2023-04-12T11:34:22.464Z,60.52
2023-04-12T11:36:52.817Z,60.57
2023-04-12T11:39:20.073Z,61.43
2023-04-12T11:41:47.881Z,61.86
2023-04-12T11:44:18.269Z,63.74
2023-04-12T11:46:45.546Z,65.08
2023-04-12T11:49:18.982Z,64.32
2023-04-12T11:51:49.001Z,65.37
2023-04-12T11:54:16.154Z,67.49
2023-04-12T11:56:42.628Z,68.97
2023-04-12T11:59:09.105Z,68.61
2023-04-12T12:01:36.023Z,69.89
2023-04-12T12:04:03.187Z,71.72
2023-04-12T12:06:31.515Z,71.71
2023-04-12T12:08:58.775Z,73.93
2023-04-12T12:11:26.692Z,75.62
2023-04-12T12:13:57.022Z,76.77
2023-04-12T12:16:26.435Z,77.28
2023-04-12T12:18:53.288Z,77.40
2023-04-12T12:21:20.711Z,78.31
2023-04-12T12:23:47.778Z,80.35
2023-04-12T12:26:24.560Z,80.95
2023-04-12T12:28:57.894Z,81.83
2023-04-12T12:31:26.663Z,82.47
2023-04-12T12:33:58.206Z,82.80
2023-04-12T12:36:33.020Z,82.20
2023-04-12T12:39:07.317Z,82.88
2023-04-12T12:41:34.312Z,83.18
2023-04-12T12:44:00.849Z,83.28
2023-04-12T12:46:37.381Z,83.50
2023-04-12T12:49:13.796Z,84.61
2023-04-12T12:51:42.112Z,84.48
2023-04-12T12:54:08.802Z,83.42
2023-04-12T12:56:38.195Z,83.60
2023-04-12T12:59:04.664Z,84.76
2023-04-12T13:01:31.369Z,82.62
2023-04-12T13:03:58.933Z,81.81
2023-04-12T13:06:27.105Z,83.40
2023-04-12T13:08:55.086Z,83.19
2023-04-12T13:11:22.018Z,82.28
2023-04-12T13:13:48.539Z,83.02
2023-04-12T13:16:15.693Z,83.21
2023-04-12T13:18:43.100Z,82.92
2023-04-12T13:21:09.555Z,83.62
2023-04-12T13:23:36.143Z,83.69
2023-04-12T13:26:02.659Z,85.61
2023-04-12T13:28:29.169Z,83.88
2023-04-12T13:30:55.815Z,82.72
2023-04-12T13:33:22.516Z,83.42
2023-04-12T13:35:49.236Z,85.39
2023-04-12T13:38:15.750Z,85.71
2023-04-12T13:40:42.219Z,84.37
2023-04-12T13:43:08.761Z,85.40
2023-04-12T13:45:35.967Z,84.36
2023-04-12T13:48:02.634Z,83.58
2023-04-12T13:50:29.157Z,85.29
2023-04-12T13:52:55.676Z,85.52
2023-04-12T13:55:22.185Z,86.73
2023-04-12T13:57:48.620Z,87.60
2023-04-12T14:00:15.643Z,86.71
2023-04-12T14:02:42.209Z,85.16
2023-04-12T14:05:08.986Z,86.52
2023-04-12T14:07:35.752Z,88.04
2023-04-12T14:10:02.291Z,85.74
2023-04-12T14:12:28.779Z,84.39
2023-04-12T14:14:55.369Z,84.69
2023-04-12T14:17:21.968Z,85.86
2023-04-12T14:19:48.542Z,85.15
2023-04-12T14:22:15.009Z,86.22
2023-04-12T14:24:41.700Z,87.70
2023-04-12T14:27:08.570Z,87.04
2023-04-12T14:29:35.069Z,86.15
2023-04-12T14:32:01.516Z,87.24
2023-04-12T14:34:27.983Z,86.94
2023-04-12T14:36:56.355Z,85.96
2023-04-12T14:39:27.844Z,85.24
2023-04-12T14:41:54.556Z,86.17
2023-04-12T14:44:23.019Z,87.52
2023-04-12T14:46:51.591Z,84.62
2023-04-12T14:49:18.511Z,83.83
2023-04-12T14:51:45.042Z,85.83
2023-04-12T14:54:11.508Z,85.52
2023-04-12T14:56:45.100Z,85.31
2023-04-12T14:59:16.452Z,86.12
2023-04-12T15:01:43.859Z,85.54
2023-04-12T15:04:10.820Z,86.75
2023-04-12T15:06:42.384Z,86.26
2023-04-12T15:09:09.866Z,87.95
2023-04-12T15:11:36.657Z,89.48
2023-04-12T15:14:04.268Z,86.60
2023-04-12T15:16:31.039Z,86.78
2023-04-12T15:18:59.560Z,86.93
2023-04-12T15:21:28.787Z,87.43
2023-04-12T15:23:56.300Z,87.37
2023-04-12T15:26:22.927Z,86.31
2023-04-12T15:28:49.399Z,87.38
2023-04-12T15:31:16.124Z,89.10
2023-04-12T15:33:42.671Z,86.21
2023-04-12T15:36:09.245Z,86.15
2023-04-12T15:38:41.265Z,88.90
2023-04-12T15:41:07.926Z,86.93
2023-04-12T15:43:34.411Z,85.99
2023-04-12T15:46:01.613Z,88.21
2023-04-12T15:48:28.432Z,90.18
2023-04-12T15:50:56.509Z,89.21
2023-04-12T15:53:24.844Z,88.68
2023-04-12T15:55:54.970Z,87.78
2023-04-12T15:58:25.192Z,90.05
2023-04-12T16:00:53.921Z,89.39
2023-04-12T16:03:23.613Z,89.45
2023-04-12T16:05:54.089Z,89.45
2023-04-12T16:08:22.385Z,88.09
2023-04-12T16:10:50.279Z,89.36
2023-04-12T16:13:16.853Z,90.80
2023-04-12T16:15:43.359Z,90.49
2023-04-12T16:18:11.193Z,91.00
2023-04-12T16:20:37.766Z,89.21
2023-04-12T16:23:05.132Z,89.77
2023-04-12T16:25:31.729Z,90.31
2023-04-12T16:28:02.282Z,89.98
2023-04-12T16:30:30.750Z,89.92
2023-04-12T16:32:57.942Z,90.60
2023-04-12T16:35:24.589Z,89.65
2023-04-12T16:37:51.337Z,91.72
2023-04-12T16:40:18.052Z,90.06
2023-04-12T16:42:44.843Z,90.42
2023-04-12T16:45:13.953Z,90.50
2023-04-12T16:47:40.927Z,90.34
2023-04-12T16:50:12.811Z,88.88
2023-04-12T16:52:39.993Z,88.79
2023-04-12T16:55:06.828Z,89.67
2023-04-12T16:57:33.277Z,88.19
2023-04-12T17:00:00.649Z,89.86
2023-04-12T17:02:27.434Z,88.07
2023-04-12T17:04:54.092Z,88.64
2023-04-12T17:07:20.565Z,89.04
2023-04-12T17:09:47.129Z,88.00
2023-04-12T17:12:13.584Z,89.30
2023-04-12T17:14:40.061Z,88.52
2023-04-12T17:17:06.922Z,88.59
2023-04-12T17:19:33.929Z,89.40
2023-04-12T17:22:01.338Z,88.00
2023-04-12T17:24:29.080Z,87.83
2023-04-12T17:26:55.823Z,86.38
2023-04-12T17:29:22.573Z,87.41
2023-04-12T17:31:50.802Z,87.64
2023-04-12T17:34:19.849Z,87.51
2023-04-12T17:36:46.843Z,86.93
2023-04-12T17:39:13.442Z,86.98
2023-04-12T17:41:40.075Z,87.04
2023-04-12T17:44:06.856Z,88.09
2023-04-12T17:46:35.509Z,89.15
2023-04-12T17:49:05.594Z,87.25
2023-04-12T17:51:33.653Z,88.40
2023-04-12T17:54:00.810Z,87.31
2023-04-12T17:56:27.541Z,87.47
2023-04-12T17:59:02.747Z,88.93
2023-04-12T18:01:29.396Z,88.12
2023-04-12T18:03:57.595Z,89.42
2023-04-12T18:06:24.222Z,87.35
2023-04-12T18:08:50.755Z,88.94
2023-04-12T18:11:18.245Z,88.30
2023-04-12T18:13:44.770Z,88.08
2023-04-12T18:16:11.335Z,88.17
2023-04-12T18:18:37.946Z,89.02
2023-04-12T18:21:05.906Z,92.04
2023-04-12T18:23:32.530Z,88.77
2023-04-12T18:25:59.005Z,87.49
2023-04-12T18:28:25.634Z,89.49
2023-04-12T18:30:52.134Z,89.58
2023-04-12T18:33:18.664Z,90.37
2023-04-12T18:35:45.612Z,89.32
2023-04-12T18:38:12.073Z,88.14
2023-04-12T18:40:38.794Z,88.89
2023-04-12T18:43:05.427Z,91.71
2023-04-12T18:45:32.289Z,90.99
2023-04-12T18:48:05.671Z,90.65
2023-04-12T18:50:32.291Z,89.51
2023-04-12T18:52:58.805Z,90.95
2023-04-12T18:55:25.695Z,87.96
2023-04-12T18:57:52.163Z,88.08
2023-04-12T19:00:19.761Z,87.81
2023-04-12T19:02:46.340Z,88.32
2023-04-12T19:05:14.815Z,89.57
2023-04-12T19:07:41.562Z,89.03
2023-04-12T19:10:09.194Z,89.40
2023-04-12T19:12:35.640Z,90.87
2023-04-12T19:15:02.161Z,90.56
2023-04-12T19:17:29.436Z,89.66
2023-04-12T19:19:56.536Z,88.53
2023-04-12T19:22:26.386Z,88.60
2023-04-12T19:24:53.804Z,87.40
2023-04-12T19:27:22.947Z,86.75
2023-04-12T19:29:51.768Z,87.86
2023-04-12T19:32:18.790Z,88.23
2023-04-12T19:34:47.643Z,87.13
2023-04-12T19:37:14.179Z,89.07
2023-04-12T19:39:41.188Z,87.41
2023-04-12T19:42:07.740Z,91.71
2023-04-12T19:44:34.768Z,89.27
2023-04-12T19:47:01.639Z,90.77
2023-04-12T19:49:28.772Z,89.83
2023-04-12T19:51:55.385Z,88.02
2023-04-12T19:54:25.945Z,87.81
2023-04-12T19:56:53.411Z,88.27
2023-04-12T19:59:21.200Z,88.16
2023-04-12T20:01:48.561Z,89.75
2023-04-12T20:04:16.677Z,89.52
2023-04-12T20:06:44.007Z,89.03
2023-04-12T20:09:13.757Z,88.08
2023-04-12T20:11:41.033Z,87.24
2023-04-12T20:14:10.591Z,89.22
2023-04-12T20:16:38.113Z,86.44
2023-04-12T20:19:05.029Z,86.74
2023-04-12T20:21:32.800Z,85.56
2023-04-12T20:23:59.413Z,84.87
2023-04-12T20:26:31.545Z,87.29
2023-04-12T20:29:01.402Z,91.88
2023-04-12T20:31:28.445Z,91.72
2023-04-12T20:33:55.871Z,87.88
2023-04-12T20:36:22.980Z,88.77
2023-04-12T20:38:50.920Z,88.49
2023-04-12T20:41:17.781Z,90.48
2023-04-12T20:43:46.672Z,93.69
2023-04-12T20:46:18.977Z,94.09
2023-04-12T20:48:47.495Z,93.11
2023-04-12T20:51:15.209Z,91.74
2023-04-12T20:53:48.768Z,91.80
2023-04-12T20:56:16.992Z,90.56
2023-04-12T20:58:44.397Z,90.88
2023-04-12T21:01:14.828Z,91.37
2023-04-12T21:03:42.656Z,91.09
2023-04-12T21:06:09.917Z,91.07
2023-04-12T21:08:38.752Z,91.03
2023-04-12T21:11:06.186Z,91.23
2023-04-12T21:13:33.506Z,90.29
2023-04-12T21:16:02.180Z,90.21
2023-04-12T21:18:28.813Z,90.05
2023-04-12T21:20:58.934Z,90.25
2023-04-12T21:23:25.477Z,91.26
2023-04-12T21:25:51.952Z,89.86
2023-04-12T21:28:18.410Z,89.20
2023-04-12T21:30:46.246Z,88.21
2023-04-12T21:33:12.802Z,86.83
2023-04-12T21:35:40.232Z,89.48
2023-04-12T21:38:07.521Z,86.64
2023-04-12T21:40:33.999Z,82.45
2023-04-12T21:43:01.490Z,81.11
2023-04-12T21:45:28.072Z,82.06
2023-04-12T21:47:54.544Z,81.53
2023-04-12T21:50:21.185Z,81.26
2023-04-12T21:52:47.872Z,81.30
2023-04-12T21:55:14.499Z,83.23
2023-04-12T21:57:41.394Z,82.85
2023-04-12T22:00:10.182Z,82.44
2023-04-12T22:02:36.966Z,82.78
2023-04-12T22:05:13.089Z,83.33
2023-04-12T22:07:41.339Z,83.07
2023-04-12T22:10:12.163Z,82.78
2023-04-12T22:12:39.535Z,82.30
2023-04-12T22:15:06.441Z,82.02
2023-04-12T22:17:33.411Z,82.65
2023-04-12T22:19:59.973Z,82.73
2023-04-12T22:22:29.936Z,82.94
2023-04-12T22:24:56.578Z,84.11
2023-04-12T22:27:26.343Z,84.40
2023-04-12T22:29:53.531Z,84.54
2023-04-12T22:32:20.036Z,85.20
2023-04-12T22:34:48.357Z,84.03
2023-04-12T22:37:16.680Z,84.13
2023-04-12T22:39:43.203Z,83.97
2023-04-12T22:44:43.094Z,83.35
2023-04-12T22:47:10.832Z,83.22
2023-04-12T22:49:50.722Z,82.28
2023-04-12T22:52:22.107Z,82.44
2023-04-12T22:54:49.351Z,81.66
2023-04-12T22:57:16.418Z,80.37
2023-04-12T22:59:43.535Z,82.29
2023-04-12T23:02:10.825Z,84.52
2023-04-12T23:04:38.275Z,84.30
2023-04-12T23:07:05.147Z,84.76
2023-04-12T23:09:33.597Z,84.08
2023-04-12T23:12:01.114Z,83.49
2023-04-12T23:17:19.574Z,84.61
2023-04-12T23:19:46.710Z,86.64
2023-04-12T23:22:44.449Z,86.52
2023-04-12T23:25:21.658Z,85.42
2023-04-12T23:27:49.367Z,86.98
2023-04-12T23:30:18.008Z,87.62
2023-04-12T23:32:45.453Z,85.69
2023-04-12T23:35:12.666Z,84.67
2023-04-12T23:37:41.116Z,86.66
2023-04-12T23:40:14.148Z,87.56
2023-04-12T23:42:41.889Z,85.54
2023-04-12T23:45:10.636Z,86.26
2023-04-12T23:47:37.399Z,84.57
2023-04-12T23:50:05.795Z,85.04
2023-04-12T23:52:32.593Z,84.07
2023-04-12T23:54:59.511Z,84.42
2023-04-12T23:57:26.188Z,84.12
2023-04-12T23:59:52.996Z,83.55
